createdAt,value
2019-06-10T00:00:04.820Z,15.65
2019-06-10T00:02:37.613Z,15.64
2019-06-10T00:05:10.966Z,15.65
2019-06-10T00:07:43.418Z,15.61
2019-06-10T00:10:15.727Z,15.62
2019-06-10T00:12:47.963Z,15.64
2019-06-10T00:15:21.355Z,15.66
2019-06-10T00:18:17.270Z,15.71
2019-06-10T00:20:27.823Z,15.73
2019-06-10T00:23:02.554Z,15.72
2019-06-10T00:25:34.170Z,15.71
2019-06-10T00:28:07.474Z,15.71
2019-06-10T00:30:41.157Z,15.74
2019-06-10T00:33:13.923Z,15.78
2019-06-10T00:35:46.200Z,15.77
2019-06-10T00:38:18.452Z,15.80
2019-06-10T00:40:51.386Z,15.88
2019-06-10T00:43:23.943Z,15.91
2019-06-10T00:45:56.153Z,15.83
2019-06-10T00:48:29.354Z,15.74
2019-06-10T00:51:04.090Z,15.71
2019-06-10T00:53:36.412Z,15.63
2019-06-10T00:56:12.550Z,15.51
2019-06-10T00:58:43.106Z,15.44
2019-06-10T01:01:15.172Z,15.41
2019-06-10T01:03:47.468Z,15.37
2019-06-10T01:06:21.372Z,15.30
2019-06-10T01:08:54.715Z,15.21
2019-06-10T01:11:27.427Z,15.10
2019-06-10T01:14:01.454Z,15.05
2019-06-10T01:16:33.860Z,15.07
2019-06-10T01:19:06.079Z,15.08
2019-06-10T01:21:38.429Z,15.05
2019-06-10T01:24:14.429Z,15.03
2019-06-10T01:26:45.652Z,14.98
2019-06-10T01:29:18.179Z,14.97
2019-06-10T01:31:51.238Z,14.95
2019-06-10T01:34:23.715Z,14.94
2019-06-10T01:36:55.939Z,14.88
2019-06-10T01:39:30.701Z,14.92
2019-06-10T01:42:02.097Z,14.90
2019-06-10T01:44:34.298Z,14.86
2019-06-10T01:47:06.793Z,14.78
2019-06-10T01:49:41.106Z,14.74
2019-06-10T01:52:15.103Z,14.73
2019-06-10T01:54:46.856Z,14.72
2019-06-10T01:57:21.240Z,14.66
2019-06-10T01:59:53.001Z,14.60
2019-06-10T02:02:25.237Z,14.51
2019-06-10T02:04:57.451Z,14.45
2019-06-10T02:07:31.805Z,14.43
2019-06-10T02:10:03.597Z,14.43
2019-06-10T02:12:35.825Z,14.42
2019-06-10T02:15:08.095Z,14.42
2019-06-10T02:17:41.835Z,14.46
2019-06-10T02:20:16.528Z,14.43
2019-06-10T02:22:48.022Z,14.42
2019-06-10T02:25:21.695Z,14.46
2019-06-10T02:27:54.201Z,14.48
2019-06-10T02:30:40.398Z,14.48
2019-06-10T02:33:02.551Z,14.50
2019-06-10T02:35:43.981Z,14.53
2019-06-10T02:38:08.228Z,14.54
2019-06-10T02:40:43.206Z,14.59
2019-06-10T02:43:17.992Z,14.59
2019-06-10T02:45:48.263Z,14.55
2019-06-10T02:48:24.674Z,14.56
2019-06-10T02:50:54.546Z,14.57
2019-06-10T02:53:30.693Z,14.55
2019-06-10T02:56:03.989Z,14.51
2019-06-10T02:58:39.019Z,14.50
2019-06-10T03:01:08.610Z,14.48
2019-06-10T03:03:45.805Z,14.45
2019-06-10T03:06:19.864Z,14.43
2019-06-10T03:08:54.589Z,14.42
2019-06-10T03:11:29.725Z,14.43
2019-06-10T03:14:02.630Z,14.44
2019-06-10T03:16:34.973Z,14.47
2019-06-10T03:19:07.196Z,14.48
2019-06-10T03:21:39.401Z,14.55
2019-06-10T03:24:13.179Z,14.56
2019-06-10T03:26:45.660Z,14.58
2019-06-10T03:29:18.559Z,14.64
2019-06-10T03:31:54.773Z,14.71
2019-06-10T03:34:33.678Z,14.71
2019-06-10T03:36:58.766Z,14.73
2019-06-10T03:39:32.228Z,14.75
2019-06-10T03:42:04.531Z,14.78
2019-06-10T03:44:36.782Z,14.76
2019-06-10T03:47:09.007Z,14.86
2019-06-10T03:49:52.368Z,14.84
2019-06-10T03:52:15.153Z,14.86
2019-06-10T03:54:47.397Z,14.88
2019-06-10T03:57:19.619Z,14.88
2019-06-10T03:59:53.889Z,14.91
2019-06-10T04:02:28.504Z,14.94
2019-06-10T04:05:02.772Z,14.92
2019-06-10T04:07:34.801Z,14.88
2019-06-10T04:10:06.853Z,14.83
2019-06-10T04:12:39.072Z,14.84
2019-06-10T04:15:12.257Z,14.79
2019-06-10T04:17:44.808Z,14.76
2019-06-10T04:20:17.735Z,14.69
2019-06-10T04:22:52.193Z,14.64
2019-06-10T04:25:26.650Z,14.60
2019-06-10T04:27:57.935Z,14.55
2019-06-10T04:30:32.372Z,14.52
2019-06-10T04:33:05.177Z,14.48
2019-06-10T04:35:37.257Z,14.48
2019-06-10T04:38:13.082Z,14.48
2019-06-10T04:40:45.622Z,14.44
2019-06-10T04:43:18.854Z,14.39
2019-06-10T04:45:52.786Z,14.43
2019-06-10T04:48:26.549Z,14.46
2019-06-10T04:50:59.349Z,14.43
2019-06-10T04:53:33.058Z,14.41
2019-06-10T04:56:05.548Z,14.43
2019-06-10T04:58:37.781Z,14.44
2019-06-10T05:01:12.114Z,14.49
2019-06-10T05:03:44.190Z,14.60
2019-06-10T05:06:16.416Z,14.68
2019-06-10T05:08:48.785Z,14.73
2019-06-10T05:11:23.717Z,14.79
2019-06-10T05:13:54.934Z,14.86
2019-06-10T05:16:30.521Z,14.93
2019-06-10T05:19:03.618Z,15.03
2019-06-10T05:21:35.060Z,15.16
2019-06-10T05:24:07.306Z,15.30
2019-06-10T05:26:42.035Z,15.44
2019-06-10T05:29:13.469Z,15.70
2019-06-10T05:31:45.687Z,15.97
2019-06-10T05:34:17.903Z,16.24
2019-06-10T05:36:52.415Z,16.36
2019-06-10T05:39:27.058Z,16.36
2019-06-10T05:41:58.005Z,16.35
2019-06-10T05:44:30.236Z,16.36
2019-06-10T05:47:03.589Z,16.35
2019-06-10T05:49:36.371Z,16.33
2019-06-10T05:52:08.624Z,16.38
2019-06-10T05:54:42.988Z,16.47
2019-06-10T05:57:14.874Z,16.52
2019-06-10T05:59:47.100Z,16.59
2019-06-10T06:02:19.360Z,16.68
2019-06-10T06:04:53.047Z,16.79
2019-06-10T06:07:25.536Z,16.97
2019-06-10T06:09:57.745Z,17.02
2019-06-10T06:12:29.977Z,17.18
2019-06-10T06:15:02.510Z,17.33
2019-06-10T06:17:35.767Z,17.46
2019-06-10T06:20:08.005Z,17.50
2019-06-10T06:22:42.670Z,17.50
2019-06-10T06:25:15.474Z,17.55
2019-06-10T06:27:48.032Z,17.69
2019-06-10T06:30:22.589Z,17.87
2019-06-10T06:32:54.241Z,17.98
2019-06-10T06:35:26.482Z,18.11
2019-06-10T06:37:58.696Z,18.18
2019-06-10T06:40:34.274Z,18.31
2019-06-10T06:43:04.847Z,18.32
2019-06-10T06:45:37.767Z,18.32
2019-06-10T06:48:12.319Z,18.22
2019-06-10T06:51:00.096Z,18.21
2019-06-10T06:53:28.850Z,18.15
2019-06-10T06:55:55.869Z,18.11
2019-06-10T06:58:26.796Z,18.07
2019-06-10T07:01:07.411Z,18.07
2019-06-10T07:03:35.356Z,18.12
2019-06-10T07:06:07.194Z,18.20
2019-06-10T07:08:41.489Z,18.29
2019-06-10T07:11:13.878Z,18.31
2019-06-10T07:13:47.010Z,18.38
2019-06-10T07:16:19.281Z,18.50
2019-06-10T07:18:54.006Z,18.55
2019-06-10T07:21:25.461Z,18.59
2019-06-10T07:23:57.708Z,18.66
2019-06-10T07:26:34.118Z,18.71
2019-06-10T07:29:05.367Z,18.63
2019-06-10T07:31:38.454Z,18.66
2019-06-10T07:34:12.914Z,18.83
2019-06-10T07:36:46.481Z,19.00
2019-06-10T07:39:18.957Z,19.09
2019-06-10T07:41:52.840Z,19.09
2019-06-10T07:44:25.549Z,19.21
2019-06-10T07:46:57.787Z,19.24
2019-06-10T07:49:32.157Z,19.28
2019-06-10T07:52:15.855Z,19.38
2019-06-10T07:54:39.217Z,19.50
2019-06-10T07:57:12.963Z,19.56
2019-06-10T07:59:46.003Z,19.63
2019-06-10T08:02:18.501Z,19.48
2019-06-10T08:04:53.904Z,19.31
2019-06-10T08:07:24.920Z,19.38
2019-06-10T08:09:57.198Z,19.60
2019-06-10T08:12:29.418Z,19.75
2019-06-10T08:15:02.782Z,19.88
2019-06-10T08:17:36.110Z,19.94
2019-06-10T08:20:10.026Z,19.81
2019-06-10T08:22:50.876Z,19.73
2019-06-10T08:25:16.347Z,19.78
2019-06-10T08:27:49.368Z,19.91
2019-06-10T08:30:26.618Z,20.02
2019-06-10T08:32:56.581Z,20.03
2019-06-10T08:35:39.468Z,20.06
2019-06-10T08:38:02.865Z,20.15
2019-06-10T08:40:38.286Z,20.27
2019-06-10T08:43:13.159Z,20.30
2019-06-10T08:45:47.044Z,20.40
2019-06-10T08:48:18.645Z,20.59
2019-06-10T08:50:53.136Z,20.81
2019-06-10T08:53:24.862Z,21.00
2019-06-10T08:55:57.117Z,21.29
2019-06-10T08:58:29.317Z,21.48
2019-06-10T09:01:02.302Z,21.75
2019-06-10T09:03:36.298Z,21.98
2019-06-10T09:06:08.504Z,22.12
2019-06-10T09:08:41.914Z,22.10
2019-06-10T09:11:14.772Z,22.10
2019-06-10T09:13:48.321Z,22.02
2019-06-10T09:16:23.014Z,21.93
2019-06-10T09:18:55.631Z,21.93
2019-06-10T09:21:27.918Z,21.90
2019-06-10T09:24:03.566Z,21.95
2019-06-10T09:26:34.100Z,21.94
2019-06-10T09:29:06.528Z,21.95
2019-06-10T09:31:39.455Z,22.00
2019-06-10T09:34:12.957Z,21.97
2019-06-10T09:36:47.970Z,21.99
2019-06-10T09:39:19.272Z,21.95
2019-06-10T09:42:00.015Z,22.03
2019-06-10T09:44:25.705Z,22.03
2019-06-10T09:47:00.342Z,22.19
2019-06-10T09:49:33.489Z,22.39
2019-06-10T09:52:05.900Z,22.70
2019-06-10T09:54:38.155Z,22.95
2019-06-10T09:57:12.694Z,22.97
2019-06-10T09:59:47.772Z,22.96
2019-06-10T10:02:18.311Z,23.01
2019-06-10T10:04:54.819Z,23.09
2019-06-10T10:07:24.600Z,23.20
2019-06-10T10:09:57.409Z,23.24
2019-06-10T10:12:32.184Z,23.19
2019-06-10T10:15:22.521Z,23.06
2019-06-10T10:17:37.706Z,22.83
2019-06-10T10:20:12.222Z,22.83
2019-06-10T10:22:45.688Z,23.04
2019-06-10T10:25:18.073Z,23.29
2019-06-10T10:27:53.161Z,23.53
2019-06-10T10:30:24.595Z,23.73
2019-06-10T10:32:56.942Z,23.95
2019-06-10T10:35:29.178Z,24.08
2019-06-10T10:38:03.883Z,24.28
2019-06-10T10:40:35.537Z,24.49
2019-06-10T10:43:24.436Z,24.36
2019-06-10T10:45:47.364Z,24.19
2019-06-10T10:48:17.888Z,24.42
2019-06-10T10:50:55.848Z,24.60
2019-06-10T10:53:26.169Z,24.92
2019-06-10T10:55:58.411Z,25.50
2019-06-10T10:58:32.511Z,25.77
2019-06-10T11:01:05.000Z,25.79
2019-06-10T11:03:37.429Z,25.89
2019-06-10T11:06:12.626Z,26.01
2019-06-10T11:08:45.286Z,25.99
2019-06-10T11:11:18.194Z,25.69
2019-06-10T11:13:54.815Z,25.41
2019-06-10T11:16:26.017Z,25.43
2019-06-10T11:18:58.275Z,25.55
2019-06-10T11:21:32.892Z,25.76
2019-06-10T11:24:04.933Z,26.07
2019-06-10T11:26:37.299Z,26.39
2019-06-10T11:29:09.725Z,26.61
2019-06-10T11:31:44.316Z,26.73
2019-06-10T11:34:19.656Z,26.71
2019-06-10T11:36:53.550Z,26.50
2019-06-10T11:39:24.831Z,26.03
2019-06-10T11:41:59.361Z,25.63
2019-06-10T11:44:33.847Z,25.58
2019-06-10T11:47:05.540Z,25.76
2019-06-10T11:49:37.776Z,25.92
2019-06-10T11:52:12.594Z,26.00
2019-06-10T11:54:55.151Z,26.14
2019-06-10T11:57:18.547Z,26.70
2019-06-10T11:59:53.228Z,28.89
2019-06-10T12:02:27.197Z,31.20
2019-06-10T12:05:03.519Z,32.70
2019-06-10T12:07:35.063Z,33.44
2019-06-10T12:10:07.929Z,33.36
2019-06-10T12:12:43.199Z,31.68
2019-06-10T12:15:15.216Z,30.76
2019-06-10T12:17:55.530Z,29.62
2019-06-10T12:20:22.980Z,29.85
2019-06-10T12:22:58.230Z,29.38
2019-06-10T12:25:36.766Z,28.73
2019-06-10T12:28:07.168Z,28.00
2019-06-10T12:30:37.649Z,27.42
2019-06-10T12:33:09.856Z,27.44
2019-06-10T12:35:42.328Z,26.92
2019-06-10T12:38:14.789Z,26.31
2019-06-10T12:40:47.052Z,25.63
2019-06-10T12:43:19.252Z,25.27
2019-06-10T12:45:53.966Z,24.92
2019-06-10T12:48:25.834Z,24.62
2019-06-10T12:51:00.292Z,24.38
2019-06-10T12:53:32.674Z,24.14
2019-06-10T12:56:09.983Z,23.99
2019-06-10T12:58:39.219Z,23.81
2019-06-10T13:01:11.620Z,23.66
2019-06-10T13:03:43.981Z,23.65
2019-06-10T13:06:16.271Z,23.59
2019-06-10T13:08:48.490Z,23.59
2019-06-10T13:11:23.238Z,23.61
2019-06-10T13:13:56.137Z,23.57
2019-06-10T13:16:28.566Z,23.60
2019-06-10T13:19:03.281Z,23.78
2019-06-10T13:21:34.776Z,23.85
2019-06-10T13:24:07.912Z,23.82
2019-06-10T13:26:42.994Z,23.84
2019-06-10T13:29:17.571Z,23.91
2019-06-10T13:31:48.207Z,24.01
2019-06-10T13:34:22.143Z,24.15
2019-06-10T13:36:54.442Z,24.31
2019-06-10T13:39:27.735Z,24.51
2019-06-10T13:42:03.233Z,24.60
2019-06-10T13:44:34.104Z,24.62
2019-06-10T13:47:09.904Z,24.49
2019-06-10T13:49:42.690Z,24.51
2019-06-10T13:52:16.761Z,24.71
2019-06-10T13:54:48.122Z,24.79
2019-06-10T13:57:22.866Z,24.93
2019-06-10T13:59:54.264Z,24.78
2019-06-10T14:02:26.546Z,24.66
2019-06-10T14:05:00.082Z,24.72
2019-06-10T14:07:33.934Z,24.86
2019-06-10T14:10:09.623Z,25.21
2019-06-10T14:12:40.135Z,25.58
2019-06-10T14:15:17.016Z,25.98
2019-06-10T14:17:46.311Z,26.26
2019-06-10T14:20:22.987Z,26.40
2019-06-10T14:22:54.748Z,26.49
2019-06-10T14:25:27.016Z,26.56
2019-06-10T14:28:03.154Z,26.50
2019-06-10T14:30:33.982Z,26.40
2019-06-10T14:33:07.409Z,26.52
2019-06-10T14:35:39.733Z,26.58
2019-06-10T14:38:15.442Z,26.39
2019-06-10T14:40:46.562Z,26.25
2019-06-10T14:43:18.975Z,26.36
2019-06-10T14:45:53.420Z,26.49
2019-06-10T14:48:25.126Z,26.37
2019-06-10T14:50:57.339Z,26.48
2019-06-10T14:53:29.575Z,26.57
2019-06-10T14:56:03.578Z,26.38
2019-06-10T14:58:35.757Z,26.05
2019-06-10T15:01:11.416Z,26.10
2019-06-10T15:03:42.923Z,26.28
2019-06-10T15:06:15.675Z,26.41
2019-06-10T15:08:47.949Z,26.55
2019-06-10T15:11:23.200Z,26.62
2019-06-10T15:13:54.167Z,26.68
2019-06-10T15:16:26.421Z,26.50
2019-06-10T15:19:12.009Z,26.19
2019-06-10T15:21:32.708Z,25.72
2019-06-10T15:24:05.006Z,25.44
2019-06-10T15:26:37.224Z,25.25
2019-06-10T15:29:09.516Z,25.07
2019-06-10T15:31:42.883Z,25.08
2019-06-10T15:34:17.029Z,25.27
2019-06-10T15:36:49.174Z,25.50
2019-06-10T15:39:23.954Z,25.65
2019-06-10T15:41:55.562Z,25.70
2019-06-10T15:44:47.957Z,25.85
2019-06-10T15:47:03.106Z,25.84
2019-06-10T15:49:35.699Z,25.94
2019-06-10T15:52:07.969Z,25.74
2019-06-10T15:54:42.544Z,25.72
2019-06-10T15:57:31.453Z,25.65
2019-06-10T15:59:48.265Z,25.56
2019-06-10T16:02:21.896Z,25.14
2019-06-10T16:04:54.429Z,24.96
2019-06-10T16:07:26.810Z,24.92
2019-06-10T16:09:59.083Z,24.72
2019-06-10T16:12:33.020Z,24.54
2019-06-10T16:15:05.415Z,24.45
2019-06-10T16:17:37.658Z,24.34
2019-06-10T16:20:12.620Z,24.21
2019-06-10T16:22:43.879Z,24.00
2019-06-10T16:25:16.100Z,23.79
2019-06-10T16:27:51.115Z,23.74
2019-06-10T16:30:23.215Z,23.68
2019-06-10T16:32:56.376Z,23.60
2019-06-10T16:35:28.620Z,23.53
2019-06-10T16:38:00.846Z,23.56
2019-06-10T16:40:33.095Z,23.57
2019-06-10T16:43:05.360Z,23.54
2019-06-10T16:45:37.551Z,23.54
2019-06-10T16:48:09.804Z,23.57
2019-06-10T16:50:42.616Z,23.53
2019-06-10T16:53:15.061Z,23.50
2019-06-10T16:55:47.302Z,23.34
2019-06-10T16:58:21.168Z,23.20
2019-06-10T17:00:53.503Z,23.17
2019-06-10T17:03:27.286Z,23.23
2019-06-10T17:05:59.709Z,23.27
2019-06-10T17:08:33.396Z,23.21
2019-06-10T17:11:06.014Z,22.88
2019-06-10T17:13:38.236Z,22.88
2019-06-10T17:16:12.544Z,22.72
2019-06-10T17:18:45.523Z,22.61
2019-06-10T17:21:19.394Z,22.54
2019-06-10T17:23:52.579Z,22.51
2019-06-10T17:26:30.649Z,22.43
2019-06-10T17:28:59.341Z,22.43
2019-06-10T17:31:35.034Z,22.38
2019-06-10T17:34:06.034Z,22.38
2019-06-10T17:36:38.326Z,22.27
2019-06-10T17:39:12.523Z,21.98
2019-06-10T17:41:44.646Z,21.86
2019-06-10T17:44:16.948Z,21.86
2019-06-10T17:46:49.270Z,21.72
2019-06-10T17:49:23.781Z,21.65
2019-06-10T17:51:55.813Z,21.65
2019-06-10T17:54:28.276Z,21.68
2019-06-10T17:57:02.515Z,21.73
2019-06-10T17:59:35.515Z,21.72
2019-06-10T18:02:08.066Z,21.72
2019-06-10T18:04:42.053Z,21.59
2019-06-10T18:07:14.483Z,21.59
2019-06-10T18:09:46.759Z,21.65
2019-06-10T18:12:19.003Z,21.65
2019-06-10T18:14:52.479Z,21.59
2019-06-10T18:17:25.992Z,21.50
2019-06-10T18:19:58.891Z,21.43
2019-06-10T18:22:33.456Z,21.37
2019-06-10T18:25:05.094Z,21.24
2019-06-10T18:27:37.352Z,21.13
2019-06-10T18:30:11.487Z,21.05
2019-06-10T18:32:44.692Z,21.06
2019-06-10T18:35:16.893Z,20.97
2019-06-10T18:40:21.425Z,20.88
2019-06-10T18:42:53.836Z,20.83
2019-06-10T18:45:26.147Z,20.83
2019-06-10T18:47:59.420Z,20.80
2019-06-10T18:50:33.391Z,20.73
2019-06-10T18:53:06.511Z,20.69
2019-06-10T18:55:40.570Z,20.68
2019-06-10T18:58:12.857Z,20.61
2019-06-10T19:00:59.097Z,20.59
2019-06-10T19:03:19.088Z,20.54
2019-06-10T19:05:52.932Z,20.52
2019-06-10T19:08:25.758Z,20.50
2019-06-10T19:10:58.011Z,20.46
2019-06-10T19:13:33.928Z,20.47
2019-06-10T19:16:04.572Z,20.50
2019-06-10T19:18:37.859Z,20.52
2019-06-10T19:21:12.915Z,20.53
2019-06-10T19:23:44.349Z,20.53
2019-06-10T19:26:18.608Z,20.51
2019-06-10T19:28:53.352Z,20.51
2019-06-10T19:31:25.303Z,20.50
2019-06-10T19:33:57.598Z,20.44
2019-06-10T19:36:29.835Z,20.41
2019-06-10T19:39:02.400Z,20.38
2019-06-10T19:41:38.302Z,20.36
2019-06-10T19:44:13.005Z,20.34
2019-06-10T19:46:45.075Z,20.31
2019-06-10T19:49:17.599Z,20.28
2019-06-10T19:51:52.453Z,20.26
2019-06-10T19:54:24.001Z,20.22
2019-06-10T19:56:56.362Z,20.18
2019-06-10T19:59:28.640Z,20.10
2019-06-10T20:02:03.242Z,19.96
2019-06-10T20:04:36.145Z,19.74
2019-06-10T20:07:08.660Z,19.45
2019-06-10T20:09:43.298Z,19.12
2019-06-10T20:12:14.856Z,18.89
2019-06-10T20:14:47.887Z,18.59
2019-06-10T20:17:22.618Z,18.41
2019-06-10T20:19:54.491Z,18.16
2019-06-10T20:22:26.699Z,17.85
2019-06-10T20:24:59.011Z,17.57
2019-06-10T20:27:33.041Z,17.37
2019-06-10T20:30:20.551Z,17.23
2019-06-10T20:32:41.508Z,17.10
2019-06-10T20:35:13.089Z,16.93
2019-06-10T20:37:47.242Z,16.76
2019-06-10T20:40:19.280Z,16.68
2019-06-10T20:42:51.685Z,16.54
2019-06-10T20:45:23.928Z,16.41
2019-06-10T20:47:56.189Z,16.40
2019-06-10T20:50:28.398Z,16.38
2019-06-10T20:53:13.832Z,16.37
2019-06-10T20:55:42.460Z,16.34
2019-06-10T20:58:08.533Z,16.32
2019-06-10T21:00:46.505Z,16.35
2019-06-10T21:03:14.689Z,16.30
2019-06-10T21:05:47.719Z,16.39
2019-06-10T21:08:22.524Z,16.47
2019-06-10T21:10:54.950Z,16.57
2019-06-10T21:13:27.429Z,16.63
2019-06-10T21:15:59.644Z,16.67
2019-06-10T21:18:32.997Z,16.75
2019-06-10T21:21:05.503Z,16.83
2019-06-10T21:23:37.734Z,16.82
2019-06-10T21:26:12.431Z,16.74
2019-06-10T21:28:47.358Z,16.78
2019-06-10T21:31:17.870Z,16.79
2019-06-10T21:33:51.810Z,16.81
2019-06-10T21:36:24.081Z,16.85
2019-06-10T21:38:56.319Z,16.79
2019-06-10T21:41:28.998Z,16.78
2019-06-10T21:44:03.096Z,16.74
2019-06-10T21:46:35.202Z,16.72
2019-06-10T21:49:07.588Z,16.70
2019-06-10T21:51:39.825Z,16.67
2019-06-10T21:54:12.105Z,16.69
2019-06-10T21:56:45.646Z,16.71
2019-06-10T21:59:19.387Z,16.77
2019-06-10T22:01:51.643Z,16.83
2019-06-10T22:04:23.854Z,16.88
2019-06-10T22:06:56.440Z,16.90
2019-06-10T22:09:28.811Z,16.92
2019-06-10T22:12:02.944Z,16.91
2019-06-10T22:14:34.962Z,16.87
2019-06-10T22:17:07.205Z,16.85
2019-06-10T22:19:39.429Z,16.84
2019-06-10T22:22:12.981Z,16.86
2019-06-10T22:24:45.244Z,16.87
2019-06-10T22:27:17.491Z,16.85
2019-06-10T22:29:49.708Z,16.84
2019-06-10T22:32:22.002Z,16.82
2019-06-10T22:34:55.821Z,16.75
2019-06-10T22:37:28.178Z,16.65
2019-06-10T22:40:03.075Z,16.62
2019-06-10T22:42:35.401Z,16.58
2019-06-10T22:45:07.784Z,16.53
2019-06-10T22:47:40.026Z,16.48
2019-06-10T22:50:12.668Z,16.44
2019-06-10T22:52:44.965Z,16.39
2019-06-10T22:55:17.806Z,16.35
2019-06-10T22:57:51.755Z,16.29
2019-06-10T23:00:24.119Z,16.29
2019-06-10T23:02:57.683Z,16.34
2019-06-10T23:05:30.420Z,16.42
2019-06-10T23:08:02.630Z,16.47
2019-06-10T23:10:34.856Z,16.52
2019-06-10T23:13:08.193Z,16.57
2019-06-10T23:15:42.654Z,16.61
2019-06-10T23:18:14.436Z,16.60
2019-06-10T23:20:46.644Z,16.65
2019-06-10T23:23:18.873Z,16.73
2019-06-10T23:25:51.707Z,16.81
2019-06-10T23:28:24.272Z,16.86
2019-06-10T23:30:58.883Z,16.88
2019-06-10T23:33:32.378Z,16.91
2019-06-10T23:36:04.398Z,16.92
2019-06-10T23:38:36.623Z,16.86
2019-06-10T23:41:08.832Z,16.80
2019-06-10T23:43:42.319Z,16.78
2019-06-10T23:46:14.698Z,16.74
2019-06-10T23:48:46.931Z,16.77
2019-06-10T23:51:19.185Z,16.77
2019-06-10T23:53:56.303Z,16.72
2019-06-10T23:56:25.384Z,16.72
2019-06-10T23:59:00.395Z,16.72
